Skip Navigation LinksHome page > Weather > Current weather Skip Navigation Links

Current Weather

Bom Jesus Da Lapa, Brazil

For information only: do not use for flight planning or navigation.
Latest weather
Observation time Monday, May 22, 2017 11:00 AM BRT
Local time Monday, May 22, 2017 12:40 PM BRT
Flight conditions Visual Meteorological Conditions
Winds
Wind direction North-Northeast (30°)
Wind speed 7 mph
Visibility 6.2 mi.
Sky condition
Ceiling unlimited
Sky clear
Temperature 90°F
Dewpoint 64°F
Altimeter 30.00 in.Hg
Derived measurements
Relative humidity 43%
Heat index 91°F
Density altitude 3574 ft.
Remarks
Ceiling and visibility OK.
METAR SBLP 221400Z 03006KT CAVOK 32/18 Q1016

Settings

Location code

InnerDrive.Weather 4.0.6144.1 Release CLR 4.0.30319.36366
Copyright ©2015 Inner Drive Technology. All rights reserved. Portions Copyright ©1986-2015 David Braverman.

Find weather

Site navigation


Skip Navigation Links

Place info

Page info

PayPal - The safer, easier way to pay online!

Return home.

Copyright ©2017 Inner Drive Technology. Purveyors of fine, hand-crafted computer software. Page printed 2017-05-22T15:40:47 UTC.